createdAt,value
2022-08-01T00:00:51.853Z,3.10
2022-08-01T00:03:18.964Z,3.15
2022-08-01T00:05:46.438Z,3.20
2022-08-01T00:08:13.594Z,3.45
2022-08-01T00:10:40.746Z,2.70
2022-08-01T00:13:07.860Z,3.30
2022-08-01T00:15:36.292Z,4.38
2022-08-01T00:18:03.409Z,3.45
2022-08-01T00:20:30.548Z,3.30
2022-08-01T00:22:57.640Z,3.72
2022-08-01T00:25:33.573Z,3.50
2022-08-01T00:28:02.125Z,3.70
2022-08-01T00:30:31.834Z,3.10
2022-08-01T00:32:59.041Z,3.47
2022-08-01T00:35:26.285Z,3.45
2022-08-01T00:37:53.710Z,3.22
2022-08-01T00:40:20.983Z,3.70
2022-08-01T00:42:48.041Z,3.38
2022-08-01T00:45:15.168Z,3.30
2022-08-01T00:47:42.283Z,3.80
2022-08-01T00:50:10.299Z,3.55
2022-08-01T00:52:37.803Z,3.35
2022-08-01T00:55:05.514Z,3.10
2022-08-01T00:58:02.242Z,3.80
2022-08-01T01:00:23.955Z,3.90
2022-08-01T01:02:54.825Z,4.13
2022-08-01T01:05:22.275Z,4.22
2022-08-01T01:08:03.127Z,4.07
2022-08-01T01:10:48.988Z,4.07
2022-08-01T01:13:50.684Z,4.43
2022-08-01T01:16:22.501Z,4.13
2022-08-01T01:19:02.267Z,3.55
2022-08-01T01:21:53.577Z,4.45
2022-08-01T01:24:46.860Z,3.60
2022-08-01T01:27:30.948Z,3.53
2022-08-01T01:30:01.350Z,3.70
2022-08-01T01:32:35.203Z,3.72
2022-08-01T01:35:12.348Z,4.15
2022-08-01T01:37:41.398Z,3.78
2022-08-01T01:40:12.105Z,3.95
2022-08-01T01:42:40.987Z,4.32
2022-08-01T01:45:09.587Z,3.75
2022-08-01T01:47:39.443Z,4.43
2022-08-01T01:50:09.525Z,3.72
2022-08-01T01:52:37.672Z,4.20
2022-08-01T01:55:09.178Z,3.67
2022-08-01T01:57:42.086Z,3.95
2022-08-01T02:00:12.509Z,4.03
2022-08-01T02:02:43.189Z,4.20
2022-08-01T02:05:13.090Z,3.97
2022-08-01T02:07:42.381Z,3.78
2022-08-01T02:10:13.082Z,3.60
2022-08-01T02:12:46.086Z,4.13
2022-08-01T02:15:14.896Z,3.95
2022-08-01T02:17:48.239Z,3.88
2022-08-01T02:20:15.834Z,3.83
2022-08-01T02:22:54.873Z,4.00
2022-08-01T02:25:32.696Z,3.90
2022-08-01T02:28:07.057Z,3.67
2022-08-01T02:30:38.379Z,3.78
2022-08-01T02:33:27.732Z,4.20
2022-08-01T02:36:29.655Z,3.55
2022-08-01T02:38:48.190Z,3.58
2022-08-01T02:41:22.042Z,3.83
2022-08-01T02:43:53.679Z,3.70
2022-08-01T02:46:44.434Z,3.72
2022-08-01T02:49:12.942Z,3.63
2022-08-01T02:51:42.455Z,3.97
2022-08-01T02:54:11.436Z,4.65
2022-08-01T02:56:41.091Z,3.50
2022-08-01T02:59:15.522Z,3.85
2022-08-01T03:01:46.129Z,3.78
2022-08-01T03:04:15.477Z,4.65
2022-08-01T03:06:45.023Z,4.22
2022-08-01T03:09:14.377Z,4.00
2022-08-01T03:11:46.356Z,4.13
2022-08-01T03:14:15.208Z,4.45
2022-08-01T03:16:46.681Z,4.53
2022-08-01T03:19:16.735Z,4.30
2022-08-01T03:21:45.710Z,4.82
2022-08-01T03:24:14.175Z,4.93
2022-08-01T03:26:42.676Z,5.32
2022-08-01T03:29:20.842Z,5.05
2022-08-01T03:31:49.800Z,5.75
2022-08-01T03:34:18.330Z,6.35
2022-08-01T03:37:10.911Z,6.13
2022-08-01T03:39:51.319Z,5.65
2022-08-01T03:42:24.611Z,5.20
2022-08-01T03:45:00.300Z,5.38
2022-08-01T03:47:34.453Z,4.60
2022-08-01T03:50:12.435Z,5.20
2022-08-01T03:52:42.840Z,4.30
2022-08-01T03:55:12.472Z,4.18
2022-08-01T03:57:41.112Z,4.47
2022-08-01T04:00:10.103Z,4.20
2022-08-01T04:02:38.791Z,4.25
2022-08-01T04:05:06.855Z,4.43
2022-08-01T04:07:40.123Z,4.80
2022-08-01T04:10:07.971Z,4.05
2022-08-01T04:12:35.683Z,4.30
2022-08-01T04:15:03.162Z,3.78
2022-08-01T04:17:33.668Z,4.65
2022-08-01T04:20:00.857Z,4.40
2022-08-01T04:22:28.368Z,4.72
2022-08-01T04:24:59.540Z,4.47
2022-08-01T04:27:49.992Z,3.97
2022-08-01T04:30:32.228Z,4.80
2022-08-01T04:33:01.999Z,5.32
2022-08-01T04:36:04.154Z,4.82
2022-08-01T04:38:28.284Z,5.28
2022-08-01T04:40:57.343Z,5.80
2022-08-01T04:43:24.704Z,3.92
2022-08-01T04:45:53.208Z,4.50
2022-08-01T04:48:22.879Z,3.88
2022-08-01T04:50:50.691Z,4.30
2022-08-01T04:53:23.101Z,4.13
2022-08-01T04:55:50.815Z,4.32
2022-08-01T04:58:19.001Z,4.60
2022-08-01T05:00:47.934Z,4.50
2022-08-01T05:03:15.472Z,4.32
2022-08-01T05:05:42.900Z,4.03
2022-08-01T05:08:11.143Z,4.80
2022-08-01T05:10:38.387Z,4.78
2022-08-01T05:13:05.436Z,4.95
2022-08-01T05:15:32.505Z,4.45
2022-08-01T05:17:59.713Z,3.90
2022-08-01T05:20:27.230Z,3.97
2022-08-01T05:22:54.329Z,4.50
2022-08-01T05:25:56.221Z,4.05
2022-08-01T05:28:08.899Z,4.60
2022-08-01T05:30:40.700Z,4.70
2022-08-01T05:33:07.785Z,4.28
2022-08-01T05:35:47.771Z,4.18
2022-08-01T05:38:16.813Z,4.45
2022-08-01T05:40:43.911Z,4.97
2022-08-01T05:43:11.033Z,3.95
2022-08-01T05:45:38.181Z,4.60
2022-08-01T05:48:05.567Z,4.88
2022-08-01T05:50:34.667Z,5.18
2022-08-01T05:53:01.798Z,4.90
2022-08-01T05:55:28.966Z,4.55
2022-08-01T05:57:56.092Z,4.50
2022-08-01T06:00:23.327Z,4.47
2022-08-01T06:02:50.695Z,3.92
2022-08-01T06:05:17.896Z,4.35
2022-08-01T06:07:45.209Z,4.10
2022-08-01T06:10:12.368Z,4.07
2022-08-01T06:12:39.533Z,3.80
2022-08-01T06:15:07.567Z,4.35
2022-08-01T06:17:35.009Z,4.05
2022-08-01T06:20:02.238Z,4.10
2022-08-01T06:22:29.419Z,3.95
2022-08-01T06:24:58.102Z,4.65
2022-08-01T06:27:27.032Z,4.63
2022-08-01T06:29:58.085Z,4.32
2022-08-01T06:32:27.091Z,4.75
2022-08-01T06:34:56.142Z,4.75
2022-08-01T06:37:24.281Z,4.38
2022-08-01T06:39:54.319Z,3.90
2022-08-01T06:42:21.418Z,3.42
2022-08-01T06:44:48.459Z,3.67
2022-08-01T06:47:15.862Z,3.45
2022-08-01T06:49:42.947Z,3.83
2022-08-01T06:52:10.249Z,3.55
2022-08-01T06:54:37.519Z,3.35
2022-08-01T06:57:07.769Z,3.60
2022-08-01T06:59:35.000Z,3.92
2022-08-01T07:02:02.540Z,3.20
2022-08-01T07:04:30.008Z,3.17
2022-08-01T07:06:57.964Z,3.40
2022-08-01T07:09:25.149Z,2.90
2022-08-01T07:11:53.465Z,3.00
2022-08-01T07:14:22.532Z,3.10
2022-08-01T07:16:50.183Z,2.97
2022-08-01T07:19:18.209Z,3.20
2022-08-01T07:21:45.657Z,2.50
2022-08-01T07:24:19.619Z,3.25
2022-08-01T07:26:53.059Z,3.03
2022-08-01T07:29:30.526Z,2.90
2022-08-01T07:31:58.950Z,2.95
2022-08-01T07:34:27.204Z,2.80
2022-08-01T07:36:54.677Z,2.75
2022-08-01T07:39:22.344Z,3.00
2022-08-01T07:42:06.075Z,3.08
2022-08-01T07:44:36.243Z,2.95
2022-08-01T07:47:04.620Z,3.35
2022-08-01T07:49:36.079Z,3.55
2022-08-01T07:52:06.491Z,4.15
2022-08-01T07:54:34.703Z,3.50
2022-08-01T07:57:03.886Z,3.08
2022-08-01T07:59:31.588Z,3.10
2022-08-01T08:01:59.085Z,3.00
2022-08-01T08:04:27.374Z,2.80
2022-08-01T08:06:55.149Z,2.75
2022-08-01T08:09:22.525Z,3.35
2022-08-01T08:11:49.816Z,3.35
2022-08-01T08:14:20.250Z,2.97
2022-08-01T08:16:47.509Z,3.28
2022-08-01T08:19:14.643Z,3.28
2022-08-01T08:21:42.489Z,3.47
2022-08-01T08:24:26.385Z,3.38
2022-08-01T08:26:58.574Z,3.20
2022-08-01T08:29:27.476Z,3.03
2022-08-01T08:31:58.695Z,3.55
2022-08-01T08:34:27.340Z,3.13
2022-08-01T08:36:57.077Z,3.33
2022-08-01T08:39:27.193Z,2.85
2022-08-01T08:41:54.382Z,2.88
2022-08-01T08:44:21.595Z,2.70
2022-08-01T08:46:52.441Z,2.95
2022-08-01T08:49:35.837Z,2.58
2022-08-01T08:52:06.315Z,2.53
2022-08-01T08:54:38.764Z,2.30
2022-08-01T08:57:06.511Z,2.38
2022-08-01T08:59:33.857Z,2.47
2022-08-01T09:02:00.954Z,2.60
2022-08-01T09:04:28.219Z,2.53
2022-08-01T09:06:56.199Z,2.75
2022-08-01T09:09:24.677Z,2.47
2022-08-01T09:11:56.571Z,1.88
2022-08-01T09:14:28.397Z,2.30
2022-08-01T09:17:11.922Z,2.38
2022-08-01T09:19:54.465Z,2.22
2022-08-01T09:22:26.343Z,2.00
2022-08-01T09:24:59.417Z,2.00
2022-08-01T09:27:31.573Z,1.75
2022-08-01T09:30:23.972Z,2.58
2022-08-01T09:33:06.574Z,2.35
2022-08-01T09:35:46.478Z,2.10
2022-08-01T09:38:24.819Z,1.90
2022-08-01T09:40:55.023Z,2.50
2022-08-01T09:43:25.870Z,1.98
2022-08-01T09:45:55.406Z,2.10
2022-08-01T09:48:28.498Z,2.00
2022-08-01T09:51:03.914Z,2.03
2022-08-01T09:53:51.924Z,2.05
2022-08-01T09:56:23.244Z,1.67
2022-08-01T09:59:02.355Z,1.77
2022-08-01T10:01:46.352Z,1.88
2022-08-01T10:04:21.279Z,1.80
2022-08-01T10:06:55.303Z,1.98
2022-08-01T10:09:40.336Z,1.98
2022-08-01T10:12:15.912Z,1.65
2022-08-01T10:14:46.788Z,1.63
2022-08-01T10:17:20.889Z,1.52
2022-08-01T10:19:51.640Z,2.00
2022-08-01T10:22:23.623Z,2.10
2022-08-01T10:24:57.099Z,1.70
2022-08-01T10:27:38.436Z,2.20
2022-08-01T10:30:19.787Z,2.20
2022-08-01T10:32:55.048Z,1.98
2022-08-01T10:35:45.742Z,1.80
2022-08-01T10:38:10.903Z,2.20
2022-08-01T10:40:43.800Z,1.70
2022-08-01T10:43:12.614Z,1.90
2022-08-01T10:45:41.518Z,2.00
2022-08-01T10:48:41.381Z,1.95
2022-08-01T10:51:18.542Z,1.92
2022-08-01T10:53:57.008Z,1.60
2022-08-01T10:56:50.635Z,1.73
2022-08-01T10:59:50.776Z,1.73
2022-08-01T11:02:34.590Z,1.83
2022-08-01T11:05:10.959Z,1.58
2022-08-01T11:07:52.491Z,2.05
2022-08-01T11:10:44.049Z,2.28
2022-08-01T11:13:13.600Z,2.08
2022-08-01T11:15:50.414Z,1.88
2022-08-01T11:18:32.111Z,1.80
2022-08-01T11:21:57.931Z,1.83
2022-08-01T11:23:54.922Z,2.22
2022-08-01T11:26:29.044Z,1.50
2022-08-01T11:29:23.227Z,3.17
2022-08-01T11:31:51.414Z,2.03
2022-08-01T11:34:18.927Z,2.00
2022-08-01T11:37:03.222Z,2.03
2022-08-01T11:39:31.833Z,1.95
2022-08-01T11:42:20.832Z,1.95
2022-08-01T11:44:52.360Z,1.98
2022-08-01T11:47:39.600Z,1.63
2022-08-01T11:50:07.251Z,1.80
2022-08-01T11:52:36.660Z,1.63
2022-08-01T11:55:03.682Z,1.85
2022-08-01T11:57:38.175Z,1.65
2022-08-01T12:00:17.400Z,1.80
2022-08-01T12:02:59.111Z,1.90
2022-08-01T12:05:28.500Z,1.88
2022-08-01T12:07:59.087Z,1.90
2022-08-01T12:10:32.884Z,2.40
2022-08-01T12:15:38.737Z,1.67
2022-08-01T12:18:07.894Z,1.92
2022-08-01T12:20:56.240Z,1.83
2022-08-01T12:23:24.363Z,2.00
2022-08-01T12:25:54.700Z,2.05
2022-08-01T12:28:22.310Z,2.17
2022-08-01T12:30:50.592Z,1.73
2022-08-01T12:33:22.202Z,2.28
2022-08-01T12:35:49.654Z,2.00
2022-08-01T12:38:20.522Z,2.05
2022-08-01T12:40:53.081Z,1.85
2022-08-01T12:43:28.418Z,2.20
2022-08-01T12:45:59.883Z,1.88
2022-08-01T12:48:28.114Z,2.00
2022-08-01T12:50:58.713Z,2.40
2022-08-01T12:53:41.102Z,1.90
2022-08-01T12:56:11.713Z,1.20
2022-08-01T12:58:39.613Z,1.23
2022-08-01T13:01:11.514Z,1.30
2022-08-01T13:03:39.474Z,1.00
2022-08-01T13:06:18.004Z,1.20
2022-08-01T13:08:46.631Z,1.05
2022-08-01T13:11:16.640Z,0.95
2022-08-01T13:13:52.797Z,1.33
2022-08-01T13:16:48.785Z,1.13
2022-08-01T13:19:14.866Z,1.35
2022-08-01T13:21:56.812Z,1.20
2022-08-01T13:24:28.721Z,1.48
2022-08-01T13:27:04.248Z,1.80
2022-08-01T13:29:45.487Z,1.67
2022-08-01T13:32:27.620Z,1.45
2022-08-01T13:35:08.151Z,1.73
2022-08-01T13:37:40.906Z,1.42
2022-08-01T13:40:10.214Z,2.00
2022-08-01T13:42:38.413Z,1.70
2022-08-01T13:45:14.515Z,1.73
2022-08-01T13:48:03.302Z,1.48
2022-08-01T13:50:33.329Z,1.80
2022-08-01T13:53:00.626Z,1.33
2022-08-01T13:55:34.254Z,1.20
2022-08-01T13:58:02.788Z,1.15
2022-08-01T14:00:30.068Z,1.40
2022-08-01T14:02:57.196Z,1.15
2022-08-01T14:05:24.289Z,1.20
2022-08-01T14:07:51.382Z,1.40
2022-08-01T14:10:27.215Z,1.10
2022-08-01T14:12:56.853Z,1.00
2022-08-01T14:15:38.448Z,1.10
2022-08-01T14:18:09.541Z,1.05
2022-08-01T14:20:38.427Z,1.38
2022-08-01T14:23:08.531Z,1.38
2022-08-01T14:26:02.515Z,1.25
2022-08-01T14:28:29.596Z,1.25
2022-08-01T14:30:58.536Z,1.00
2022-08-01T14:33:26.071Z,1.13
2022-08-01T14:36:05.556Z,1.13
2022-08-01T14:38:40.720Z,1.17
2022-08-01T14:41:07.789Z,1.27
2022-08-01T14:43:34.986Z,1.20
2022-08-01T14:46:04.402Z,0.80
2022-08-01T14:48:31.769Z,1.10
2022-08-01T14:51:03.483Z,1.00
2022-08-01T14:53:31.234Z,1.63
2022-08-01T14:55:58.364Z,1.20
2022-08-01T14:58:25.429Z,1.17
2022-08-01T15:00:58.474Z,1.02
2022-08-01T15:03:26.483Z,1.10
2022-08-01T15:05:53.746Z,1.02
2022-08-01T15:08:20.893Z,1.35
2022-08-01T15:10:47.974Z,1.20
2022-08-01T15:13:15.052Z,1.40
2022-08-01T15:15:44.749Z,0.80
2022-08-01T15:18:12.332Z,1.20
2022-08-01T15:20:39.958Z,1.58
2022-08-01T15:23:07.099Z,1.02
2022-08-01T15:25:40.739Z,1.20
2022-08-01T15:28:13.112Z,1.25
2022-08-01T15:30:40.629Z,1.85
2022-08-01T15:33:08.030Z,1.70
2022-08-01T15:35:35.468Z,1.25
2022-08-01T15:38:03.207Z,1.35
2022-08-01T15:40:30.474Z,1.30
2022-08-01T15:42:57.693Z,1.02
2022-08-01T15:45:46.536Z,1.13
2022-08-01T15:48:12.139Z,1.13
2022-08-01T15:50:39.428Z,0.90
2022-08-01T15:53:07.420Z,1.27
2022-08-01T15:55:38.681Z,1.10
2022-08-01T15:58:06.287Z,1.38
2022-08-01T16:00:39.238Z,1.15
2022-08-01T16:03:08.426Z,1.20
2022-08-01T16:05:42.544Z,1.25
2022-08-01T16:08:14.531Z,1.25
2022-08-01T16:10:42.737Z,1.10
2022-08-01T16:13:10.811Z,1.20
2022-08-01T16:15:39.326Z,1.23
2022-08-01T16:18:10.005Z,1.27
2022-08-01T16:20:42.819Z,1.30
2022-08-01T16:23:11.790Z,1.45
2022-08-01T16:25:39.057Z,1.50
2022-08-01T16:28:06.303Z,1.23
2022-08-01T16:30:33.585Z,1.50
2022-08-01T16:33:04.821Z,1.77
2022-08-01T16:35:36.469Z,1.27
2022-08-01T16:38:06.233Z,2.45
2022-08-01T16:40:46.719Z,1.90
2022-08-01T16:43:19.388Z,3.70
2022-08-01T16:45:46.865Z,2.17
2022-08-01T16:48:15.937Z,3.17
2022-08-01T16:50:44.539Z,2.78
2022-08-01T16:53:12.075Z,2.05
2022-08-01T16:55:49.968Z,1.85
2022-08-01T16:58:27.231Z,2.03
2022-08-01T17:00:57.691Z,1.65
2022-08-01T17:03:52.487Z,1.35
2022-08-01T17:06:22.318Z,1.92
2022-08-01T17:08:50.272Z,1.23
2022-08-01T17:11:17.629Z,2.42
2022-08-01T17:13:45.410Z,2.60
2022-08-01T17:16:12.725Z,4.20
2022-08-01T17:18:39.977Z,2.17
2022-08-01T17:21:07.194Z,1.35
2022-08-01T17:23:35.784Z,1.67
2022-08-01T17:26:03.597Z,3.47
2022-08-01T17:28:30.829Z,2.50
2022-08-01T17:30:58.409Z,1.27
2022-08-01T17:33:44.851Z,1.38
2022-08-01T17:36:12.790Z,1.10
2022-08-01T17:38:39.914Z,1.58
2022-08-01T17:41:07.189Z,1.58
2022-08-01T17:43:34.295Z,1.70
2022-08-01T17:46:01.512Z,1.40
2022-08-01T17:48:29.485Z,2.15
2022-08-01T17:50:56.648Z,1.80
2022-08-01T17:53:24.136Z,1.65
2022-08-01T17:55:55.550Z,1.95
2022-08-01T17:58:49.197Z,1.30
2022-08-01T18:01:18.271Z,1.20
2022-08-01T18:03:46.518Z,1.50
2022-08-01T18:06:17.625Z,1.33
2022-08-01T18:08:47.927Z,1.60
2022-08-01T18:11:16.788Z,1.80
2022-08-01T18:13:44.905Z,1.38
2022-08-01T18:16:13.372Z,1.20
2022-08-01T18:18:42.383Z,1.13
2022-08-01T18:21:11.785Z,1.63
2022-08-01T18:23:39.595Z,1.65
2022-08-01T18:26:08.731Z,1.45
2022-08-01T18:28:41.916Z,1.45
2022-08-01T18:31:16.597Z,1.30
2022-08-01T18:33:44.655Z,1.70
2022-08-01T18:36:32.017Z,1.92
2022-08-01T18:39:04.345Z,1.30
2022-08-01T18:41:34.186Z,1.60
2022-08-01T18:44:05.449Z,1.65
2022-08-01T18:46:39.375Z,2.20
2022-08-01T18:49:09.255Z,2.28
2022-08-01T18:51:43.006Z,2.50
2022-08-01T18:54:11.029Z,2.15
2022-08-01T18:56:38.161Z,2.20
2022-08-01T18:59:05.279Z,2.03
2022-08-01T19:01:32.478Z,2.15
2022-08-01T19:03:59.595Z,1.88
2022-08-01T19:06:28.251Z,2.35
2022-08-01T19:08:59.855Z,1.95
2022-08-01T19:11:31.092Z,2.10
2022-08-01T19:13:58.749Z,2.00
2022-08-01T19:16:29.377Z,2.63
2022-08-01T19:18:56.489Z,2.47
2022-08-01T19:21:23.902Z,2.15
2022-08-01T19:24:09.726Z,2.10
2022-08-01T19:29:18.456Z,2.50
2022-08-01T19:31:49.072Z,2.13
2022-08-01T19:34:20.352Z,2.22
2022-08-01T19:36:57.225Z,1.77
2022-08-01T19:39:29.569Z,2.15
2022-08-01T19:41:59.741Z,1.92
2022-08-01T19:44:29.331Z,1.90
2022-08-01T19:46:56.631Z,1.80
2022-08-01T19:49:24.146Z,1.65
2022-08-01T19:52:01.691Z,1.42
2022-08-01T19:54:36.660Z,1.92
2022-08-01T19:57:07.230Z,1.88
2022-08-01T19:59:36.396Z,1.63
2022-08-01T20:02:05.017Z,1.73
2022-08-01T20:04:33.887Z,2.50
2022-08-01T20:07:03.172Z,2.55
2022-08-01T20:09:31.537Z,2.30
2022-08-01T20:11:58.705Z,2.35
2022-08-01T20:14:27.250Z,1.98
2022-08-01T20:16:56.416Z,2.05
2022-08-01T20:19:26.720Z,4.70
2022-08-01T20:22:07.340Z,5.60
2022-08-01T20:24:43.549Z,3.60
2022-08-01T20:27:15.746Z,3.22
2022-08-01T20:29:45.617Z,1.77
2022-08-01T20:32:14.372Z,3.92
2022-08-01T20:34:43.107Z,1.60
2022-08-01T20:37:12.721Z,1.40
2022-08-01T20:39:44.166Z,1.67
2022-08-01T20:42:13.656Z,1.20
2022-08-01T20:44:42.633Z,0.98
2022-08-01T20:47:09.948Z,1.30
2022-08-01T20:49:38.823Z,0.95
2022-08-01T20:52:11.072Z,1.13
2022-08-01T20:54:42.519Z,1.08
2022-08-01T20:57:27.560Z,1.20
2022-08-01T21:00:02.139Z,1.00
2022-08-01T21:02:38.337Z,1.50
2022-08-01T21:05:12.062Z,2.60
2022-08-01T21:07:39.006Z,2.65
2022-08-01T21:10:15.421Z,2.17
2022-08-01T21:13:03.289Z,1.23
2022-08-01T21:15:39.780Z,1.00
2022-08-01T21:19:03.655Z,1.30
2022-08-01T21:21:35.746Z,1.40
2022-08-01T21:24:18.787Z,1.42
2022-08-01T21:26:47.077Z,1.15
2022-08-01T21:29:15.352Z,1.55
2022-08-01T21:31:43.107Z,1.30
2022-08-01T21:34:12.224Z,1.20
2022-08-01T21:36:44.055Z,1.05
2022-08-01T21:39:11.639Z,1.15
2022-08-01T21:42:03.222Z,1.50
2022-08-01T21:44:29.257Z,1.58
2022-08-01T21:47:00.919Z,1.35
2022-08-01T21:49:28.359Z,1.48
2022-08-01T21:52:05.279Z,1.40
2022-08-01T21:55:04.036Z,1.65
2022-08-01T22:00:26.135Z,1.40
2022-08-01T22:03:48.047Z,1.55
2022-08-01T22:06:19.160Z,1.65
2022-08-01T22:08:56.413Z,1.60
2022-08-01T22:11:30.208Z,1.67
2022-08-01T22:14:09.608Z,1.83
2022-08-01T22:16:40.902Z,1.63
2022-08-01T22:19:37.833Z,1.77
2022-08-01T22:22:02.576Z,2.03
2022-08-01T22:24:32.644Z,2.00
2022-08-01T22:27:02.532Z,2.35
2022-08-01T22:29:30.137Z,2.42
2022-08-01T22:31:58.275Z,2.20
2022-08-01T22:34:28.483Z,2.47
2022-08-01T22:36:56.121Z,2.40
2022-08-01T22:39:24.268Z,2.40
2022-08-01T22:42:11.589Z,3.33
2022-08-01T22:45:12.589Z,2.25
2022-08-01T22:47:54.578Z,2.45
2022-08-01T22:50:37.868Z,2.00
2022-08-01T22:53:17.491Z,2.08
2022-08-01T22:55:58.290Z,1.70
2022-08-01T22:58:33.682Z,2.22
2022-08-01T23:01:02.704Z,1.92
2022-08-01T23:03:34.240Z,2.13
2022-08-01T23:06:28.594Z,1.90
2022-08-01T23:08:56.506Z,1.80
2022-08-01T23:11:24.128Z,1.80
2022-08-01T23:13:52.697Z,1.75
2022-08-01T23:16:20.078Z,1.90
2022-08-01T23:18:47.439Z,1.52
2022-08-01T23:21:16.747Z,1.10
2022-08-01T23:23:47.119Z,1.40
2022-08-01T23:26:16.343Z,1.23
2022-08-01T23:28:44.150Z,1.30
2022-08-01T23:31:12.704Z,1.40
2022-08-01T23:33:39.950Z,1.30
2022-08-01T23:36:07.348Z,1.00
2022-08-01T23:38:34.591Z,0.90
2022-08-01T23:41:01.662Z,1.40
2022-08-01T23:43:28.878Z,1.27
2022-08-01T23:46:02.447Z,1.13
2022-08-01T23:48:34.713Z,1.65
2022-08-01T23:51:02.674Z,1.38
2022-08-01T23:53:30.893Z,1.60
2022-08-01T23:56:02.514Z,1.42
2022-08-01T23:58:30.894Z,1.50
